sensor_id;sensor_type;location;lat;lon;timestamp;temperature;humidity
10980;DHT22;5543;51.734;8.744;2022-09-09T00:01:08;16.10;99.90
10980;DHT22;5543;51.734;8.744;2022-09-09T00:03:43;16.10;99.90
10980;DHT22;5543;51.734;8.744;2022-09-09T00:06:18;16.10;99.90
10980;DHT22;5543;51.734;8.744;2022-09-09T00:08:56;16.10;99.90
10980;DHT22;5543;51.734;8.744;2022-09-09T00:11:31;16.00;99.90
10980;DHT22;5543;51.734;8.744;2022-09-09T00:14:03;15.90;99.90
10980;DHT22;5543;51.734;8.744;2022-09-09T00:16:41;15.80;99.90
10980;DHT22;5543;51.734;8.744;2022-09-09T00:19:18;15.80;99.90
10980;DHT22;5543;51.734;8.744;2022-09-09T00:21:51;15.80;99.90
10980;DHT22;5543;51.734;8.744;2022-09-09T00:24:27;15.80;99.90
10980;DHT22;5543;51.734;8.744;2022-09-09T00:27:02;15.90;99.90
10980;DHT22;5543;51.734;8.744;2022-09-09T00:29:35;16.00;99.90
10980;DHT22;5543;51.734;8.744;2022-09-09T00:32:13;16.00;99.90
10980;DHT22;5543;51.734;8.744;2022-09-09T00:34:48;16.10;99.90
10980;DHT22;5543;51.734;8.744;2022-09-09T00:37:16;16.30;99.90
10980;DHT22;5543;51.734;8.744;2022-09-09T00:39:46;16.30;99.90
10980;DHT22;5543;51.734;8.744;2022-09-09T00:42:16;16.40;99.90
10980;DHT22;5543;51.734;8.744;2022-09-09T00:44:59;16.50;99.90
10980;DHT22;5543;51.734;8.744;2022-09-09T00:47:49;16.70;99.90
10980;DHT22;5543;51.734;8.744;2022-09-09T00:50:35;16.70;99.90
10980;DHT22;5543;51.734;8.744;2022-09-09T00:53:16;16.80;99.90
10980;DHT22;5543;51.734;8.744;2022-09-09T00:55:49;16.80;99.90
10980;DHT22;5543;51.734;8.744;2022-09-09T00:58:21;16.70;99.90
10980;DHT22;5543;51.734;8.744;2022-09-09T01:00:54;16.70;99.90
10980;DHT22;5543;51.734;8.744;2022-09-09T01:03:32;16.60;99.90
10980;DHT22;5543;51.734;8.744;2022-09-09T01:06:11;16.60;99.90
10980;DHT22;5543;51.734;8.744;2022-09-09T01:09:14;16.50;99.90
10980;DHT22;5543;51.734;8.744;2022-09-09T01:11:52;16.50;99.90
10980;DHT22;5543;51.734;8.744;2022-09-09T01:14:40;16.50;99.90
10980;DHT22;5543;51.734;8.744;2022-09-09T01:17:13;16.40;99.90
10980;DHT22;5543;51.734;8.744;2022-09-09T01:19:59;16.30;99.90
10980;DHT22;5543;51.734;8.744;2022-09-09T01:22:35;16.30;99.90
10980;DHT22;5543;51.734;8.744;2022-09-09T01:25:26;16.30;99.90
10980;DHT22;5543;51.734;8.744;2022-09-09T01:28:00;16.30;99.90
10980;DHT22;5543;51.734;8.744;2022-09-09T01:30:37;16.30;99.90
10980;DHT22;5543;51.734;8.744;2022-09-09T01:33:07;16.30;99.90
10980;DHT22;5543;51.734;8.744;2022-09-09T01:35:50;16.30;99.90
10980;DHT22;5543;51.734;8.744;2022-09-09T01:38:21;16.20;99.90
10980;DHT22;5543;51.734;8.744;2022-09-09T01:40:50;16.30;99.90
10980;DHT22;5543;51.734;8.744;2022-09-09T01:43:20;16.20;99.90
10980;DHT22;5543;51.734;8.744;2022-09-09T01:45:50;16.20;99.90
10980;DHT22;5543;51.734;8.744;2022-09-09T01:48:23;16.30;99.90
10980;DHT22;5543;51.734;8.744;2022-09-09T01:50:51;16.30;99.90
10980;DHT22;5543;51.734;8.744;2022-09-09T01:53:21;16.30;99.90
10980;DHT22;5543;51.734;8.744;2022-09-09T01:55:55;16.30;99.90
10980;DHT22;5543;51.734;8.744;2022-09-09T01:58:34;16.20;99.90
10980;DHT22;5543;51.734;8.744;2022-09-09T02:01:12;16.20;99.90
10980;DHT22;5543;51.734;8.744;2022-09-09T02:03:46;16.20;99.90
10980;DHT22;5543;51.734;8.744;2022-09-09T02:06:24;16.10;99.90
10980;DHT22;5543;51.734;8.744;2022-09-09T02:08:55;16.00;99.90
10980;DHT22;5543;51.734;8.744;2022-09-09T02:11:28;16.00;99.90
10980;DHT22;5543;51.734;8.744;2022-09-09T02:14:01;16.00;99.90
10980;DHT22;5543;51.734;8.744;2022-09-09T02:16:34;16.00;99.90
10980;DHT22;5543;51.734;8.744;2022-09-09T02:19:08;16.00;99.90
10980;DHT22;5543;51.734;8.744;2022-09-09T02:21:42;16.00;99.90
10980;DHT22;5543;51.734;8.744;2022-09-09T02:24:11;16.00;99.90
10980;DHT22;5543;51.734;8.744;2022-09-09T02:26:44;16.00;99.90
10980;DHT22;5543;51.734;8.744;2022-09-09T02:29:17;16.00;99.90
10980;DHT22;5543;51.734;8.744;2022-09-09T02:31:47;16.00;99.90
10980;DHT22;5543;51.734;8.744;2022-09-09T02:34:19;15.90;99.90
10980;DHT22;5543;51.734;8.744;2022-09-09T02:36:48;16.00;99.90
10980;DHT22;5543;51.734;8.744;2022-09-09T02:39:17;15.90;99.90
10980;DHT22;5543;51.734;8.744;2022-09-09T02:41:48;15.90;99.90
10980;DHT22;5543;51.734;8.744;2022-09-09T02:44:18;15.90;99.90
10980;DHT22;5543;51.734;8.744;2022-09-09T02:47:08;15.90;99.90
10980;DHT22;5543;51.734;8.744;2022-09-09T02:49:46;15.90;99.90
10980;DHT22;5543;51.734;8.744;2022-09-09T02:52:20;15.90;99.90
10980;DHT22;5543;51.734;8.744;2022-09-09T02:54:53;15.90;99.90
10980;DHT22;5543;51.734;8.744;2022-09-09T02:57:26;15.90;99.90
10980;DHT22;5543;51.734;8.744;2022-09-09T02:59:58;16.00;99.90
10980;DHT22;5543;51.734;8.744;2022-09-09T03:02:27;15.90;99.90
10980;DHT22;5543;51.734;8.744;2022-09-09T03:04:55;15.90;99.90
10980;DHT22;5543;51.734;8.744;2022-09-09T03:07:23;16.20;99.90
10980;DHT22;5543;51.734;8.744;2022-09-09T03:09:51;16.00;99.90
10980;DHT22;5543;51.734;8.744;2022-09-09T03:12:19;16.00;99.90
10980;DHT22;5543;51.734;8.744;2022-09-09T03:14:47;16.00;99.90
10980;DHT22;5543;51.734;8.744;2022-09-09T03:17:16;16.00;99.90
10980;DHT22;5543;51.734;8.744;2022-09-09T03:19:44;16.00;99.90
10980;DHT22;5543;51.734;8.744;2022-09-09T03:22:12;16.10;99.90
10980;DHT22;5543;51.734;8.744;2022-09-09T03:24:40;16.10;99.90
10980;DHT22;5543;51.734;8.744;2022-09-09T03:27:08;16.10;99.90
10980;DHT22;5543;51.734;8.744;2022-09-09T03:29:36;16.20;99.90
10980;DHT22;5543;51.734;8.744;2022-09-09T03:32:05;16.20;99.90
10980;DHT22;5543;51.734;8.744;2022-09-09T03:34:34;16.30;99.90
10980;DHT22;5543;51.734;8.744;2022-09-09T03:37:03;16.30;99.90
10980;DHT22;5543;51.734;8.744;2022-09-09T03:39:31;16.30;99.90
10980;DHT22;5543;51.734;8.744;2022-09-09T03:42:02;16.30;99.90
10980;DHT22;5543;51.734;8.744;2022-09-09T03:44:31;16.30;99.90
10980;DHT22;5543;51.734;8.744;2022-09-09T03:46:59;16.30;99.90
10980;DHT22;5543;51.734;8.744;2022-09-09T03:49:28;16.30;99.90
10980;DHT22;5543;51.734;8.744;2022-09-09T03:51:57;16.30;99.90
10980;DHT22;5543;51.734;8.744;2022-09-09T03:54:25;16.20;99.90
10980;DHT22;5543;51.734;8.744;2022-09-09T03:56:53;16.20;99.90
10980;DHT22;5543;51.734;8.744;2022-09-09T03:59:21;16.20;99.90
10980;DHT22;5543;51.734;8.744;2022-09-09T04:01:49;16.20;99.90
10980;DHT22;5543;51.734;8.744;2022-09-09T04:04:17;16.30;99.90
10980;DHT22;5543;51.734;8.744;2022-09-09T04:06:46;16.20;99.90
10980;DHT22;5543;51.734;8.744;2022-09-09T04:09:16;16.20;99.90
10980;DHT22;5543;51.734;8.744;2022-09-09T04:11:44;16.20;99.90
10980;DHT22;5543;51.734;8.744;2022-09-09T04:14:12;16.20;99.90
10980;DHT22;5543;51.734;8.744;2022-09-09T04:16:40;16.20;99.90
10980;DHT22;5543;51.734;8.744;2022-09-09T04:19:11;16.20;99.90
10980;DHT22;5543;51.734;8.744;2022-09-09T04:21:40;16.10;99.90
10980;DHT22;5543;51.734;8.744;2022-09-09T04:24:09;16.20;99.90
10980;DHT22;5543;51.734;8.744;2022-09-09T04:26:38;16.10;99.90
10980;DHT22;5543;51.734;8.744;2022-09-09T04:29:06;16.10;99.90
10980;DHT22;5543;51.734;8.744;2022-09-09T04:31:34;16.00;99.90
10980;DHT22;5543;51.734;8.744;2022-09-09T04:34:02;16.00;99.90
10980;DHT22;5543;51.734;8.744;2022-09-09T04:36:32;16.00;99.90
10980;DHT22;5543;51.734;8.744;2022-09-09T04:39:00;15.90;99.90
10980;DHT22;5543;51.734;8.744;2022-09-09T04:41:28;15.90;99.90
10980;DHT22;5543;51.734;8.744;2022-09-09T04:43:59;15.90;99.90
10980;DHT22;5543;51.734;8.744;2022-09-09T04:46:27;15.80;99.90
10980;DHT22;5543;51.734;8.744;2022-09-09T04:48:55;15.70;99.90
10980;DHT22;5543;51.734;8.744;2022-09-09T04:51:23;15.70;99.90
10980;DHT22;5543;51.734;8.744;2022-09-09T04:53:51;15.70;99.90
10980;DHT22;5543;51.734;8.744;2022-09-09T04:56:20;15.60;99.90
10980;DHT22;5543;51.734;8.744;2022-09-09T04:58:48;15.60;99.90
10980;DHT22;5543;51.734;8.744;2022-09-09T05:01:19;15.50;99.90
10980;DHT22;5543;51.734;8.744;2022-09-09T05:03:48;15.50;99.90
10980;DHT22;5543;51.734;8.744;2022-09-09T05:06:18;15.50;99.90
10980;DHT22;5543;51.734;8.744;2022-09-09T05:08:46;15.60;99.90
10980;DHT22;5543;51.734;8.744;2022-09-09T05:11:20;15.50;99.90
10980;DHT22;5543;51.734;8.744;2022-09-09T05:13:49;15.50;99.90
10980;DHT22;5543;51.734;8.744;2022-09-09T05:16:20;15.60;99.90
10980;DHT22;5543;51.734;8.744;2022-09-09T05:18:50;15.60;99.90
10980;DHT22;5543;51.734;8.744;2022-09-09T05:21:20;15.60;99.90
10980;DHT22;5543;51.734;8.744;2022-09-09T05:23:49;15.50;99.90
10980;DHT22;5543;51.734;8.744;2022-09-09T05:26:19;15.50;99.90
10980;DHT22;5543;51.734;8.744;2022-09-09T05:28:48;15.60;99.90
10980;DHT22;5543;51.734;8.744;2022-09-09T05:31:17;15.60;99.90
10980;DHT22;5543;51.734;8.744;2022-09-09T05:33:47;15.70;99.90
10980;DHT22;5543;51.734;8.744;2022-09-09T05:36:17;15.80;99.90
10980;DHT22;5543;51.734;8.744;2022-09-09T05:38:45;15.80;99.90
10980;DHT22;5543;51.734;8.744;2022-09-09T05:41:14;15.90;99.90
10980;DHT22;5543;51.734;8.744;2022-09-09T05:43:47;16.00;99.90
10980;DHT22;5543;51.734;8.744;2022-09-09T05:46:17;16.10;99.90
10980;DHT22;5543;51.734;8.744;2022-09-09T05:48:48;16.20;99.90
10980;DHT22;5543;51.734;8.744;2022-09-09T05:51:19;16.40;99.90
10980;DHT22;5543;51.734;8.744;2022-09-09T05:53:48;16.50;99.90
10980;DHT22;5543;51.734;8.744;2022-09-09T05:56:19;16.60;99.90
10980;DHT22;5543;51.734;8.744;2022-09-09T05:58:49;16.80;99.90
10980;DHT22;5543;51.734;8.744;2022-09-09T06:01:19;16.90;99.90
10980;DHT22;5543;51.734;8.744;2022-09-09T06:03:50;17.00;99.90
10980;DHT22;5543;51.734;8.744;2022-09-09T06:06:20;17.10;99.90
10980;DHT22;5543;51.734;8.744;2022-09-09T06:08:50;17.20;99.90
10980;DHT22;5543;51.734;8.744;2022-09-09T06:11:20;17.30;99.90
10980;DHT22;5543;51.734;8.744;2022-09-09T06:13:49;17.40;99.90
10980;DHT22;5543;51.734;8.744;2022-09-09T06:16:21;17.50;99.90
10980;DHT22;5543;51.734;8.744;2022-09-09T06:18:52;17.60;99.90
10980;DHT22;5543;51.734;8.744;2022-09-09T06:21:22;17.60;99.90
10980;DHT22;5543;51.734;8.744;2022-09-09T06:23:50;17.70;99.90
10980;DHT22;5543;51.734;8.744;2022-09-09T06:26:25;17.70;99.90
10980;DHT22;5543;51.734;8.744;2022-09-09T06:28:54;17.70;99.90
10980;DHT22;5543;51.734;8.744;2022-09-09T06:31:25;17.60;99.90
10980;DHT22;5543;51.734;8.744;2022-09-09T06:33:58;17.60;99.90
10980;DHT22;5543;51.734;8.744;2022-09-09T06:36:28;17.70;99.90
10980;DHT22;5543;51.734;8.744;2022-09-09T06:38:56;17.80;99.90
10980;DHT22;5543;51.734;8.744;2022-09-09T06:41:25;17.80;99.90
10980;DHT22;5543;51.734;8.744;2022-09-09T06:43:54;17.90;99.90
10980;DHT22;5543;51.734;8.744;2022-09-09T06:46:24;17.90;99.90
10980;DHT22;5543;51.734;8.744;2022-09-09T06:48:55;17.90;99.90
10980;DHT22;5543;51.734;8.744;2022-09-09T06:51:26;17.90;99.90
10980;DHT22;5543;51.734;8.744;2022-09-09T06:53:56;17.80;99.90
10980;DHT22;5543;51.734;8.744;2022-09-09T06:56:27;17.80;99.90
10980;DHT22;5543;51.734;8.744;2022-09-09T06:58:57;17.70;99.90
10980;DHT22;5543;51.734;8.744;2022-09-09T07:01:27;17.60;99.90
10980;DHT22;5543;51.734;8.744;2022-09-09T07:03:58;17.60;99.90
10980;DHT22;5543;51.734;8.744;2022-09-09T07:06:29;17.60;99.90
10980;DHT22;5543;51.734;8.744;2022-09-09T07:08:59;17.60;99.90
10980;DHT22;5543;51.734;8.744;2022-09-09T07:11:30;17.50;99.90
10980;DHT22;5543;51.734;8.744;2022-09-09T07:14:01;17.50;99.90
10980;DHT22;5543;51.734;8.744;2022-09-09T07:16:31;17.60;99.90
10980;DHT22;5543;51.734;8.744;2022-09-09T07:19:00;17.60;99.90
10980;DHT22;5543;51.734;8.744;2022-09-09T07:21:31;17.60;99.90
10980;DHT22;5543;51.734;8.744;2022-09-09T07:24:00;17.60;99.90
10980;DHT22;5543;51.734;8.744;2022-09-09T07:26:30;17.60;99.90
10980;DHT22;5543;51.734;8.744;2022-09-09T07:28:59;17.70;99.90
10980;DHT22;5543;51.734;8.744;2022-09-09T07:31:29;17.80;99.90
10980;DHT22;5543;51.734;8.744;2022-09-09T07:33:59;17.90;99.90
10980;DHT22;5543;51.734;8.744;2022-09-09T07:36:31;18.00;99.90
10980;DHT22;5543;51.734;8.744;2022-09-09T07:39:02;18.10;99.90
10980;DHT22;5543;51.734;8.744;2022-09-09T07:41:32;18.10;99.90
10980;DHT22;5543;51.734;8.744;2022-09-09T07:44:05;18.10;99.90
10980;DHT22;5543;51.734;8.744;2022-09-09T07:46:34;18.20;99.90
10980;DHT22;5543;51.734;8.744;2022-09-09T07:49:03;18.20;99.90
10980;DHT22;5543;51.734;8.744;2022-09-09T07:51:34;18.40;99.90
10980;DHT22;5543;51.734;8.744;2022-09-09T07:54:05;18.50;99.90
10980;DHT22;5543;51.734;8.744;2022-09-09T07:56:34;18.60;99.90
10980;DHT22;5543;51.734;8.744;2022-09-09T07:59:03;18.70;99.90
10980;DHT22;5543;51.734;8.744;2022-09-09T08:01:34;18.80;99.90
10980;DHT22;5543;51.734;8.744;2022-09-09T08:04:07;18.70;99.90
10980;DHT22;5543;51.734;8.744;2022-09-09T08:06:39;18.60;99.90
10980;DHT22;5543;51.734;8.744;2022-09-09T08:09:08;18.50;99.90
10980;DHT22;5543;51.734;8.744;2022-09-09T08:11:38;18.40;99.90
10980;DHT22;5543;51.734;8.744;2022-09-09T08:14:07;18.30;99.90
10980;DHT22;5543;51.734;8.744;2022-09-09T08:16:37;18.20;99.90
10980;DHT22;5543;51.734;8.744;2022-09-09T08:19:06;18.10;99.90
10980;DHT22;5543;51.734;8.744;2022-09-09T08:21:38;18.10;99.90
10980;DHT22;5543;51.734;8.744;2022-09-09T08:24:07;18.20;99.90
10980;DHT22;5543;51.734;8.744;2022-09-09T08:26:38;18.70;99.90
10980;DHT22;5543;51.734;8.744;2022-09-09T08:29:09;19.40;99.90
10980;DHT22;5543;51.734;8.744;2022-09-09T08:31:40;20.40;99.90
10980;DHT22;5543;51.734;8.744;2022-09-09T08:34:09;21.40;99.90
10980;DHT22;5543;51.734;8.744;2022-09-09T08:36:40;22.30;99.90
10980;DHT22;5543;51.734;8.744;2022-09-09T08:39:11;22.50;99.90
10980;DHT22;5543;51.734;8.744;2022-09-09T08:42:00;22.10;99.90
10980;DHT22;5543;51.734;8.744;2022-09-09T08:44:50;22.00;99.90
10980;DHT22;5543;51.734;8.744;2022-09-09T08:47:26;22.00;99.90
10980;DHT22;5543;51.734;8.744;2022-09-09T08:50:16;22.10;99.90
10980;DHT22;5543;51.734;8.744;2022-09-09T08:52:53;21.70;99.90
10980;DHT22;5543;51.734;8.744;2022-09-09T08:55:29;21.30;99.90
10980;DHT22;5543;51.734;8.744;2022-09-09T08:58:09;21.00;99.90
10980;DHT22;5543;51.734;8.744;2022-09-09T09:00:55;20.70;99.90
10980;DHT22;5543;51.734;8.744;2022-09-09T09:03:34;20.40;99.90
10980;DHT22;5543;51.734;8.744;2022-09-09T09:06:09;20.50;99.90
10980;DHT22;5543;51.734;8.744;2022-09-09T09:08:46;20.90;99.90
10980;DHT22;5543;51.734;8.744;2022-09-09T09:11:18;21.90;99.90
10980;DHT22;5543;51.734;8.744;2022-09-09T09:13:50;22.50;99.90
10980;DHT22;5543;51.734;8.744;2022-09-09T09:16:23;22.70;99.90
10980;DHT22;5543;51.734;8.744;2022-09-09T09:18:57;22.60;99.90
10980;DHT22;5543;51.734;8.744;2022-09-09T09:21:34;22.70;99.90
10980;DHT22;5543;51.734;8.744;2022-09-09T09:24:11;22.50;99.90
10980;DHT22;5543;51.734;8.744;2022-09-09T09:26:47;23.00;99.70
10980;DHT22;5543;51.734;8.744;2022-09-09T09:29:19;23.10;99.80
10980;DHT22;5543;51.734;8.744;2022-09-09T09:31:52;23.60;97.80
10980;DHT22;5543;51.734;8.744;2022-09-09T09:34:22;23.80;99.00
10980;DHT22;5543;51.734;8.744;2022-09-09T09:36:53;23.50;99.00
10980;DHT22;5543;51.734;8.744;2022-09-09T09:39:25;23.30;98.30
10980;DHT22;5543;51.734;8.744;2022-09-09T09:42:15;23.20;99.90
10980;DHT22;5543;51.734;8.744;2022-09-09T09:44:49;23.50;98.00
10980;DHT22;5543;51.734;8.744;2022-09-09T09:47:19;23.80;97.00
10980;DHT22;5543;51.734;8.744;2022-09-09T09:49:53;24.20;97.50
10980;DHT22;5543;51.734;8.744;2022-09-09T09:52:24;24.50;96.90
10980;DHT22;5543;51.734;8.744;2022-09-09T09:54:56;24.70;96.60
10980;DHT22;5543;51.734;8.744;2022-09-09T09:57:31;24.80;94.40
10980;DHT22;5543;51.734;8.744;2022-09-09T10:00:11;24.90;94.40
10980;DHT22;5543;51.734;8.744;2022-09-09T10:02:42;25.70;92.90
10980;DHT22;5543;51.734;8.744;2022-09-09T10:05:14;26.10;93.90
10980;DHT22;5543;51.734;8.744;2022-09-09T10:07:42;26.20;92.30
10980;DHT22;5543;51.734;8.744;2022-09-09T10:10:23;25.50;92.70
10980;DHT22;5543;51.734;8.744;2022-09-09T10:13:00;24.90;93.60
10980;DHT22;5543;51.734;8.744;2022-09-09T10:15:37;25.10;92.60
10980;DHT22;5543;51.734;8.744;2022-09-09T10:18:20;25.10;91.50
10980;DHT22;5543;51.734;8.744;2022-09-09T10:21:02;24.90;91.70
10980;DHT22;5543;51.734;8.744;2022-09-09T10:23:46;24.40;92.70
10980;DHT22;5543;51.734;8.744;2022-09-09T10:26:30;24.20;90.70
10980;DHT22;5543;51.734;8.744;2022-09-09T10:29:15;23.80;93.40
10980;DHT22;5543;51.734;8.744;2022-09-09T10:31:51;23.80;93.10
10980;DHT22;5543;51.734;8.744;2022-09-09T10:34:31;24.10;92.20
10980;DHT22;5543;51.734;8.744;2022-09-09T10:37:11;24.70;92.10
10980;DHT22;5543;51.734;8.744;2022-09-09T10:39:44;25.50;91.40
10980;DHT22;5543;51.734;8.744;2022-09-09T10:42:14;25.40;87.60
10980;DHT22;5543;51.734;8.744;2022-09-09T10:44:56;25.40;90.00
10980;DHT22;5543;51.734;8.744;2022-09-09T10:47:42;25.60;86.50
10980;DHT22;5543;51.734;8.744;2022-09-09T10:50:24;25.10;90.60
10980;DHT22;5543;51.734;8.744;2022-09-09T10:53:19;24.60;88.10
10980;DHT22;5543;51.734;8.744;2022-09-09T10:55:53;24.00;93.00
10980;DHT22;5543;51.734;8.744;2022-09-09T10:58:26;23.50;92.40
10980;DHT22;5543;51.734;8.744;2022-09-09T11:00:59;23.30;91.90
10980;DHT22;5543;51.734;8.744;2022-09-09T11:03:29;23.00;93.10
10980;DHT22;5543;51.734;8.744;2022-09-09T11:06:04;22.80;93.50
10980;DHT22;5543;51.734;8.744;2022-09-09T11:08:35;22.60;92.00
10980;DHT22;5543;51.734;8.744;2022-09-09T11:11:11;22.60;92.90
10980;DHT22;5543;51.734;8.744;2022-09-09T11:13:47;22.70;93.20
10980;DHT22;5543;51.734;8.744;2022-09-09T11:16:25;23.00;93.70
10980;DHT22;5543;51.734;8.744;2022-09-09T11:19:00;23.30;91.60
10980;DHT22;5543;51.734;8.744;2022-09-09T11:21:34;23.70;92.00
10980;DHT22;5543;51.734;8.744;2022-09-09T11:24:06;23.90;91.70
10980;DHT22;5543;51.734;8.744;2022-09-09T11:26:43;24.20;92.80
10980;DHT22;5543;51.734;8.744;2022-09-09T11:29:28;24.20;89.50
10980;DHT22;5543;51.734;8.744;2022-09-09T11:32:12;24.00;86.80
10980;DHT22;5543;51.734;8.744;2022-09-09T11:34:52;23.80;89.20
10980;DHT22;5543;51.734;8.744;2022-09-09T11:37:56;23.60;88.90
10980;DHT22;5543;51.734;8.744;2022-09-09T11:40:28;23.30;92.40
10980;DHT22;5543;51.734;8.744;2022-09-09T11:43:05;23.20;92.40
10980;DHT22;5543;51.734;8.744;2022-09-09T11:45:41;23.20;93.90
10980;DHT22;5543;51.734;8.744;2022-09-09T11:48:31;23.20;91.90
10980;DHT22;5543;51.734;8.744;2022-09-09T11:51:06;23.20;91.90
10980;DHT22;5543;51.734;8.744;2022-09-09T11:53:50;23.10;89.80
10980;DHT22;5543;51.734;8.744;2022-09-09T11:56:28;23.10;90.60
10980;DHT22;5543;51.734;8.744;2022-09-09T11:59:01;23.20;90.20
10980;DHT22;5543;51.734;8.744;2022-09-09T12:01:39;23.20;88.00
10980;DHT22;5543;51.734;8.744;2022-09-09T12:04:33;23.20;89.80
10980;DHT22;5543;51.734;8.744;2022-09-09T12:07:20;23.20;89.30
10980;DHT22;5543;51.734;8.744;2022-09-09T12:09:52;23.20;86.90
10980;DHT22;5543;51.734;8.744;2022-09-09T12:12:31;23.20;90.00
10980;DHT22;5543;51.734;8.744;2022-09-09T12:15:03;23.20;90.00
10980;DHT22;5543;51.734;8.744;2022-09-09T12:17:46;23.20;90.60
10980;DHT22;5543;51.734;8.744;2022-09-09T12:20:18;23.20;91.80
10980;DHT22;5543;51.734;8.744;2022-09-09T12:23:14;23.20;91.10
10980;DHT22;5543;51.734;8.744;2022-09-09T12:26:03;23.10;90.00
10980;DHT22;5543;51.734;8.744;2022-09-09T12:28:51;23.00;91.50
10980;DHT22;5543;51.734;8.744;2022-09-09T12:31:24;23.00;91.30
10980;DHT22;5543;51.734;8.744;2022-09-09T12:33:54;23.00;90.80
10980;DHT22;5543;51.734;8.744;2022-09-09T12:36:28;22.90;90.30
10980;DHT22;5543;51.734;8.744;2022-09-09T12:38:59;22.90;89.40
10980;DHT22;5543;51.734;8.744;2022-09-09T12:41:37;23.00;89.60
10980;DHT22;5543;51.734;8.744;2022-09-09T12:44:06;23.00;90.90
10980;DHT22;5543;51.734;8.744;2022-09-09T12:46:37;23.10;86.40
10980;DHT22;5543;51.734;8.744;2022-09-09T12:49:26;23.00;86.70
10980;DHT22;5543;51.734;8.744;2022-09-09T12:51:57;23.00;88.80
10980;DHT22;5543;51.734;8.744;2022-09-09T12:54:26;23.10;89.40
10980;DHT22;5543;51.734;8.744;2022-09-09T12:56:55;23.10;88.70
10980;DHT22;5543;51.734;8.744;2022-09-09T12:59:25;23.10;89.20
10980;DHT22;5543;51.734;8.744;2022-09-09T13:01:57;23.10;87.60
10980;DHT22;5543;51.734;8.744;2022-09-09T13:04:27;23.10;86.00
10980;DHT22;5543;51.734;8.744;2022-09-09T13:07:05;23.20;86.90
10980;DHT22;5543;51.734;8.744;2022-09-09T13:09:38;23.30;86.70
10980;DHT22;5543;51.734;8.744;2022-09-09T13:12:10;23.40;85.90
10980;DHT22;5543;51.734;8.744;2022-09-09T13:14:44;23.30;86.20
10980;DHT22;5543;51.734;8.744;2022-09-09T13:17:19;23.10;85.70
10980;DHT22;5543;51.734;8.744;2022-09-09T13:19:50;23.10;87.00
10980;DHT22;5543;51.734;8.744;2022-09-09T13:22:29;23.20;90.20
10980;DHT22;5543;51.734;8.744;2022-09-09T13:25:04;23.50;86.60
10980;DHT22;5543;51.734;8.744;2022-09-09T13:27:34;23.50;82.40
10980;DHT22;5543;51.734;8.744;2022-09-09T13:30:20;23.30;85.10
10980;DHT22;5543;51.734;8.744;2022-09-09T13:33:00;23.00;85.30
10980;DHT22;5543;51.734;8.744;2022-09-09T13:35:30;22.70;91.00
10980;DHT22;5543;51.734;8.744;2022-09-09T13:37:59;22.50;89.80
10980;DHT22;5543;51.734;8.744;2022-09-09T13:40:28;22.60;90.80
10980;DHT22;5543;51.734;8.744;2022-09-09T13:42:57;22.70;90.50
10980;DHT22;5543;51.734;8.744;2022-09-09T13:45:26;22.90;88.40
10980;DHT22;5543;51.734;8.744;2022-09-09T13:47:55;23.00;90.00
10980;DHT22;5543;51.734;8.744;2022-09-09T13:50:25;23.00;86.30
10980;DHT22;5543;51.734;8.744;2022-09-09T13:52:56;23.20;87.90
10980;DHT22;5543;51.734;8.744;2022-09-09T13:55:27;23.60;85.10
10980;DHT22;5543;51.734;8.744;2022-09-09T13:57:57;24.00;85.30
10980;DHT22;5543;51.734;8.744;2022-09-09T14:00:25;24.20;80.30
10980;DHT22;5543;51.734;8.744;2022-09-09T14:02:57;24.30;78.70
10980;DHT22;5543;51.734;8.744;2022-09-09T14:05:29;24.10;82.80
10980;DHT22;5543;51.734;8.744;2022-09-09T14:07:59;24.20;84.30
10980;DHT22;5543;51.734;8.744;2022-09-09T14:10:28;24.60;83.30
10980;DHT22;5543;51.734;8.744;2022-09-09T14:12:56;24.80;82.80
10980;DHT22;5543;51.734;8.744;2022-09-09T14:15:24;25.10;80.60
10980;DHT22;5543;51.734;8.744;2022-09-09T14:17:53;24.90;80.70
10980;DHT22;5543;51.734;8.744;2022-09-09T14:20:21;24.70;81.60
10980;DHT22;5543;51.734;8.744;2022-09-09T14:22:50;24.40;82.70
10980;DHT22;5543;51.734;8.744;2022-09-09T14:25:24;24.10;86.60
10980;DHT22;5543;51.734;8.744;2022-09-09T14:27:52;23.80;87.70
10980;DHT22;5543;51.734;8.744;2022-09-09T14:30:20;23.60;89.10
10980;DHT22;5543;51.734;8.744;2022-09-09T14:32:48;23.50;90.30
10980;DHT22;5543;51.734;8.744;2022-09-09T14:35:16;23.50;87.90
10980;DHT22;5543;51.734;8.744;2022-09-09T14:37:45;23.70;86.70
10980;DHT22;5543;51.734;8.744;2022-09-09T14:40:13;23.70;88.70
10980;DHT22;5543;51.734;8.744;2022-09-09T14:42:43;24.00;86.30
10980;DHT22;5543;51.734;8.744;2022-09-09T14:45:11;24.40;90.30
10980;DHT22;5543;51.734;8.744;2022-09-09T14:47:39;24.40;83.40
10980;DHT22;5543;51.734;8.744;2022-09-09T14:50:08;24.40;80.00
10980;DHT22;5543;51.734;8.744;2022-09-09T14:52:36;24.40;82.60
10980;DHT22;5543;51.734;8.744;2022-09-09T14:55:06;24.30;82.50
10980;DHT22;5543;51.734;8.744;2022-09-09T14:57:34;24.00;79.20
10980;DHT22;5543;51.734;8.744;2022-09-09T15:00:04;23.80;82.70
10980;DHT22;5543;51.734;8.744;2022-09-09T15:02:33;23.70;83.30
10980;DHT22;5543;51.734;8.744;2022-09-09T15:05:02;23.50;82.20
10980;DHT22;5543;51.734;8.744;2022-09-09T15:07:34;23.20;84.50
10980;DHT22;5543;51.734;8.744;2022-09-09T15:10:03;23.00;83.50
10980;DHT22;5543;51.734;8.744;2022-09-09T15:12:31;22.70;82.90
10980;DHT22;5543;51.734;8.744;2022-09-09T15:15:04;22.60;89.50
10980;DHT22;5543;51.734;8.744;2022-09-09T15:17:32;22.40;90.40
10980;DHT22;5543;51.734;8.744;2022-09-09T15:20:01;22.20;89.70
10980;DHT22;5543;51.734;8.744;2022-09-09T15:22:29;22.10;89.30
10980;DHT22;5543;51.734;8.744;2022-09-09T15:24:58;22.10;90.10
10980;DHT22;5543;51.734;8.744;2022-09-09T15:27:26;22.10;89.60
10980;DHT22;5543;51.734;8.744;2022-09-09T15:29:54;22.10;88.50
10980;DHT22;5543;51.734;8.744;2022-09-09T15:32:24;22.10;84.70
10980;DHT22;5543;51.734;8.744;2022-09-09T15:34:52;22.10;88.10
10980;DHT22;5543;51.734;8.744;2022-09-09T15:37:20;22.00;87.50
10980;DHT22;5543;51.734;8.744;2022-09-09T15:39:48;21.90;85.80
10980;DHT22;5543;51.734;8.744;2022-09-09T15:42:17;21.80;89.20
10980;DHT22;5543;51.734;8.744;2022-09-09T15:44:45;21.60;91.10
10980;DHT22;5543;51.734;8.744;2022-09-09T15:47:13;21.60;91.10
10980;DHT22;5543;51.734;8.744;2022-09-09T15:49:43;21.40;91.60
10980;DHT22;5543;51.734;8.744;2022-09-09T15:52:11;21.30;91.60
10980;DHT22;5543;51.734;8.744;2022-09-09T15:54:39;21.30;90.60
10980;DHT22;5543;51.734;8.744;2022-09-09T15:57:14;21.30;91.20
10980;DHT22;5543;51.734;8.744;2022-09-09T15:59:42;21.20;91.80
10980;DHT22;5543;51.734;8.744;2022-09-09T16:02:12;21.20;92.30
10980;DHT22;5543;51.734;8.744;2022-09-09T16:04:40;21.10;93.20
10980;DHT22;5543;51.734;8.744;2022-09-09T16:07:10;21.00;92.40
10980;DHT22;5543;51.734;8.744;2022-09-09T16:09:38;20.90;93.70
10980;DHT22;5543;51.734;8.744;2022-09-09T16:12:06;20.80;92.50
10980;DHT22;5543;51.734;8.744;2022-09-09T16:14:36;20.80;91.20
10980;DHT22;5543;51.734;8.744;2022-09-09T16:17:06;20.70;91.70
10980;DHT22;5543;51.734;8.744;2022-09-09T16:19:34;20.70;92.20